createdAt,value
2022-08-03T00:00:21.036Z,2.58
2022-08-03T00:02:47.563Z,2.53
2022-08-03T00:05:14.067Z,2.50
2022-08-03T00:07:41.164Z,2.70
2022-08-03T00:10:08.156Z,2.60
2022-08-03T00:12:36.334Z,2.70
2022-08-03T00:15:03.380Z,2.13
2022-08-03T00:17:52.543Z,2.45
2022-08-03T00:20:18.766Z,2.67
2022-08-03T00:22:45.261Z,2.70
2022-08-03T00:25:11.827Z,2.50
2022-08-03T00:27:38.298Z,2.88
2022-08-03T00:30:06.004Z,2.30
2022-08-03T00:32:32.478Z,2.72
2022-08-03T00:34:59.789Z,2.10
2022-08-03T00:37:40.977Z,3.00
2022-08-03T00:40:10.643Z,2.50
2022-08-03T00:42:50.644Z,2.40
2022-08-03T00:45:18.353Z,2.33
2022-08-03T00:47:45.629Z,2.30
2022-08-03T00:50:12.775Z,3.13
2022-08-03T00:52:40.219Z,2.33
2022-08-03T00:55:06.947Z,2.78
2022-08-03T00:57:33.710Z,2.53
2022-08-03T01:00:00.874Z,2.75
2022-08-03T01:02:28.817Z,2.67
2022-08-03T01:04:56.209Z,2.60
2022-08-03T01:07:42.720Z,2.78
2022-08-03T01:10:13.921Z,2.22
2022-08-03T01:13:02.828Z,2.92
2022-08-03T01:15:38.564Z,2.55
2022-08-03T01:18:17.143Z,2.90
2022-08-03T01:20:47.442Z,2.40
2022-08-03T01:23:38.565Z,2.53
2022-08-03T01:26:07.925Z,2.50
2022-08-03T01:29:01.183Z,2.67
2022-08-03T01:31:36.916Z,2.63
2022-08-03T01:34:26.237Z,2.58
2022-08-03T01:36:56.498Z,2.55
2022-08-03T01:39:25.202Z,2.40
2022-08-03T01:41:59.246Z,3.00
2022-08-03T01:44:31.424Z,2.42
2022-08-03T01:47:00.633Z,2.88
2022-08-03T01:49:30.226Z,2.45
2022-08-03T01:52:04.907Z,2.90
2022-08-03T01:54:45.077Z,2.65
2022-08-03T01:57:12.924Z,2.80
2022-08-03T01:59:41.537Z,2.63
2022-08-03T02:02:28.834Z,2.60
2022-08-03T02:05:00.321Z,2.80
2022-08-03T02:07:28.977Z,2.90
2022-08-03T02:09:57.752Z,2.70
2022-08-03T02:12:26.757Z,2.65
2022-08-03T02:14:56.354Z,3.30
2022-08-03T02:17:39.797Z,2.53
2022-08-03T02:20:09.364Z,3.05
2022-08-03T02:22:39.110Z,2.85
2022-08-03T02:25:06.912Z,3.30
2022-08-03T02:27:38.426Z,2.90
2022-08-03T02:30:10.454Z,2.90
2022-08-03T02:32:40.137Z,2.60
2022-08-03T02:35:11.673Z,2.70
2022-08-03T02:40:13.802Z,2.40
2022-08-03T02:42:43.373Z,2.70
2022-08-03T02:45:14.869Z,2.95
2022-08-03T02:47:54.414Z,2.88
2022-08-03T02:50:23.057Z,2.85
2022-08-03T02:52:51.960Z,2.75
2022-08-03T02:55:21.026Z,2.85
2022-08-03T02:57:48.701Z,2.70
2022-08-03T03:00:28.194Z,2.83
2022-08-03T03:02:58.502Z,3.33
2022-08-03T03:05:55.966Z,2.70
2022-08-03T03:08:17.934Z,2.83
2022-08-03T03:10:46.487Z,2.85
2022-08-03T03:13:16.100Z,2.88
2022-08-03T03:15:45.468Z,2.80
2022-08-03T03:18:12.882Z,2.70
2022-08-03T03:20:40.828Z,3.10
2022-08-03T03:23:09.244Z,3.33
2022-08-03T03:25:36.629Z,2.90
2022-08-03T03:28:04.189Z,3.08
2022-08-03T03:30:34.139Z,3.22
2022-08-03T03:33:00.785Z,3.75
2022-08-03T03:35:27.742Z,3.67
2022-08-03T03:37:54.642Z,3.17
2022-08-03T03:40:22.267Z,3.00
2022-08-03T03:42:49.957Z,3.22
2022-08-03T03:45:16.938Z,3.25
2022-08-03T03:47:43.745Z,3.00
2022-08-03T03:50:10.913Z,3.35
2022-08-03T03:52:37.590Z,3.03
2022-08-03T03:55:04.471Z,2.90
2022-08-03T03:57:30.989Z,2.50
2022-08-03T03:59:57.722Z,3.10
2022-08-03T04:02:24.269Z,3.13
2022-08-03T04:05:09.497Z,3.15
2022-08-03T04:08:10.574Z,2.78
2022-08-03T04:10:59.594Z,3.40
2022-08-03T04:13:37.608Z,3.75
2022-08-03T04:16:07.254Z,3.00
2022-08-03T04:18:35.479Z,3.13
2022-08-03T04:21:05.990Z,3.38
2022-08-03T04:23:35.525Z,2.97
2022-08-03T04:26:03.409Z,2.90
2022-08-03T04:28:32.237Z,2.95
2022-08-03T04:31:03.615Z,3.20
2022-08-03T04:33:33.423Z,3.00
2022-08-03T04:36:06.282Z,2.75
2022-08-03T04:38:38.811Z,3.05
2022-08-03T04:41:06.446Z,3.03
2022-08-03T04:43:34.494Z,3.22
2022-08-03T04:46:02.859Z,2.90
2022-08-03T04:48:29.794Z,2.95
2022-08-03T04:50:56.918Z,2.83
2022-08-03T04:53:23.696Z,3.17
2022-08-03T04:55:50.321Z,2.75
2022-08-03T04:58:17.049Z,2.78
2022-08-03T05:00:45.384Z,2.80
2022-08-03T05:03:20.226Z,3.03
2022-08-03T05:06:09.361Z,2.97
2022-08-03T05:08:46.306Z,2.80
2022-08-03T05:11:15.267Z,2.67
2022-08-03T05:13:41.954Z,2.72
2022-08-03T05:16:08.516Z,2.58
2022-08-03T05:18:35.895Z,2.60
2022-08-03T05:21:02.366Z,2.58
2022-08-03T05:23:28.877Z,2.75
2022-08-03T05:25:55.682Z,2.67
2022-08-03T05:28:22.325Z,2.38
2022-08-03T05:30:48.870Z,2.95
2022-08-03T05:33:15.414Z,2.60
2022-08-03T05:36:02.518Z,2.55
2022-08-03T05:38:35.044Z,2.28
2022-08-03T05:41:23.376Z,2.90
2022-08-03T05:43:54.259Z,2.75
2022-08-03T05:46:22.350Z,2.25
2022-08-03T05:48:48.908Z,2.50
2022-08-03T05:51:15.529Z,2.20
2022-08-03T05:53:43.260Z,2.25
2022-08-03T05:56:15.272Z,2.50
2022-08-03T05:58:47.235Z,2.30
2022-08-03T06:01:17.819Z,2.50
2022-08-03T06:03:45.849Z,2.35
2022-08-03T06:06:12.639Z,2.78
2022-08-03T06:08:40.046Z,2.47
2022-08-03T06:11:07.010Z,2.33
2022-08-03T06:13:33.726Z,2.40
2022-08-03T06:16:00.447Z,2.40
2022-08-03T06:18:26.948Z,2.30
2022-08-03T06:20:53.693Z,2.15
2022-08-03T06:23:21.984Z,2.47
2022-08-03T06:25:48.646Z,2.30
2022-08-03T06:28:42.540Z,2.20
2022-08-03T06:31:02.144Z,2.10
2022-08-03T06:34:30.429Z,1.98
2022-08-03T06:36:15.726Z,2.10
2022-08-03T06:38:42.196Z,2.15
2022-08-03T06:41:08.759Z,2.30
2022-08-03T06:44:03.187Z,1.90
2022-08-03T06:46:24.929Z,2.13
2022-08-03T06:48:52.910Z,2.20
2022-08-03T06:51:19.492Z,1.90
2022-08-03T06:53:45.952Z,1.77
2022-08-03T06:56:12.529Z,1.90
2022-08-03T06:58:39.014Z,1.70
2022-08-03T07:01:05.606Z,1.80
2022-08-03T07:03:32.218Z,1.80
2022-08-03T07:05:59.892Z,1.73
2022-08-03T07:08:33.180Z,1.88
2022-08-03T07:11:01.026Z,1.80
2022-08-03T07:13:27.534Z,1.70
2022-08-03T07:15:56.157Z,1.77
2022-08-03T07:18:25.660Z,1.70
2022-08-03T07:20:56.782Z,2.00
2022-08-03T07:23:23.336Z,1.92
2022-08-03T07:25:50.754Z,1.83
2022-08-03T07:28:17.438Z,1.88
2022-08-03T07:30:43.915Z,2.00
2022-08-03T07:33:10.408Z,2.08
2022-08-03T07:35:37.166Z,1.90
2022-08-03T07:38:03.709Z,1.85
2022-08-03T07:40:31.605Z,1.80
2022-08-03T07:42:58.326Z,1.75
2022-08-03T07:45:26.409Z,1.38
2022-08-03T07:47:54.360Z,1.40
2022-08-03T07:50:21.907Z,1.30
2022-08-03T07:52:52.950Z,1.20
2022-08-03T07:55:24.159Z,1.13
2022-08-03T07:58:28.912Z,1.33
2022-08-03T08:00:55.509Z,1.20
2022-08-03T08:03:22.057Z,1.20
2022-08-03T08:05:49.203Z,1.17
2022-08-03T08:08:15.757Z,1.52
2022-08-03T08:10:42.278Z,1.15
2022-08-03T08:13:24.769Z,1.15
2022-08-03T08:15:51.299Z,1.10
2022-08-03T08:18:18.348Z,1.27
2022-08-03T08:20:44.830Z,1.13
2022-08-03T08:23:27.636Z,1.25
2022-08-03T08:25:58.389Z,1.00
2022-08-03T08:28:32.205Z,1.00
2022-08-03T08:30:59.728Z,1.05
2022-08-03T08:33:37.242Z,1.00
2022-08-03T08:36:15.377Z,1.08
2022-08-03T08:38:44.420Z,1.10
2022-08-03T08:41:11.547Z,1.10
2022-08-03T08:43:38.301Z,1.20
2022-08-03T08:46:08.221Z,1.05
2022-08-03T08:48:40.333Z,1.40
2022-08-03T08:51:08.420Z,1.52
2022-08-03T08:53:38.318Z,1.00
2022-08-03T08:56:05.957Z,1.10
2022-08-03T08:58:39.609Z,1.00
2022-08-03T09:01:06.222Z,1.20
2022-08-03T09:03:35.997Z,1.27
2022-08-03T09:06:03.457Z,1.30
2022-08-03T09:08:31.209Z,1.10
2022-08-03T09:10:58.012Z,0.95
2022-08-03T09:13:24.790Z,1.05
2022-08-03T09:16:09.301Z,1.10
2022-08-03T09:18:35.921Z,1.20
2022-08-03T09:21:33.914Z,1.10
2022-08-03T09:24:04.143Z,0.93
2022-08-03T09:26:32.689Z,1.48
2022-08-03T09:29:04.685Z,0.77
2022-08-03T09:31:43.653Z,0.80
2022-08-03T09:34:16.429Z,1.00
2022-08-03T09:36:45.695Z,1.02
2022-08-03T09:39:14.907Z,1.00
2022-08-03T09:41:44.854Z,1.10
2022-08-03T09:44:24.453Z,1.10
2022-08-03T09:46:56.615Z,1.00
2022-08-03T09:49:24.254Z,1.02
2022-08-03T09:52:33.195Z,0.90
2022-08-03T09:54:38.111Z,1.10
2022-08-03T09:57:04.758Z,0.95
2022-08-03T09:59:33.336Z,1.13
2022-08-03T10:02:00.598Z,1.10
2022-08-03T10:04:27.211Z,1.30
2022-08-03T10:07:04.890Z,1.52
2022-08-03T10:09:31.645Z,1.10
2022-08-03T10:12:06.683Z,1.30
2022-08-03T10:14:33.894Z,1.20
2022-08-03T10:17:00.417Z,1.40
2022-08-03T10:19:26.920Z,1.45
2022-08-03T10:22:01.304Z,1.48
2022-08-03T10:24:30.129Z,1.30
2022-08-03T10:27:03.266Z,1.42
2022-08-03T10:29:36.875Z,1.17
2022-08-03T10:32:07.199Z,1.30
2022-08-03T10:34:44.506Z,1.52
2022-08-03T10:37:14.596Z,1.45
2022-08-03T10:39:53.315Z,1.30
2022-08-03T10:42:27.333Z,1.30
2022-08-03T10:45:06.541Z,1.48
2022-08-03T10:47:34.261Z,1.20
2022-08-03T10:50:01.850Z,1.30
2022-08-03T10:52:32.971Z,1.23
2022-08-03T10:55:21.318Z,1.40
2022-08-03T10:57:58.924Z,1.38
2022-08-03T11:00:28.197Z,1.20
2022-08-03T11:03:16.404Z,1.27
2022-08-03T11:05:49.003Z,1.20
2022-08-03T11:08:20.501Z,1.13
2022-08-03T11:10:48.338Z,1.48
2022-08-03T11:13:17.478Z,1.40
2022-08-03T11:15:46.692Z,1.20
2022-08-03T11:18:14.541Z,1.35
2022-08-03T11:20:45.781Z,1.10
2022-08-03T11:23:13.164Z,1.30
2022-08-03T11:26:17.286Z,1.17
2022-08-03T11:28:46.337Z,1.40
2022-08-03T11:31:48.680Z,1.17
2022-08-03T11:34:13.814Z,1.10
2022-08-03T11:37:18.115Z,1.20
2022-08-03T11:39:47.058Z,1.05
2022-08-03T11:42:22.850Z,1.35
2022-08-03T11:44:52.828Z,1.15
2022-08-03T11:47:21.475Z,1.17
2022-08-03T11:49:49.349Z,1.30
2022-08-03T11:52:19.506Z,1.38
2022-08-03T11:54:56.592Z,1.30
2022-08-03T11:58:58.249Z,1.17
2022-08-03T12:00:26.953Z,1.20
2022-08-03T12:02:59.170Z,1.20
2022-08-03T12:05:51.415Z,1.33
2022-08-03T12:08:28.475Z,1.05
2022-08-03T12:10:57.286Z,1.60
2022-08-03T12:14:44.066Z,1.23
2022-08-03T12:16:20.814Z,1.15
2022-08-03T12:19:01.316Z,1.23
2022-08-03T12:21:28.817Z,1.20
2022-08-03T12:24:00.595Z,1.15
2022-08-03T12:26:29.222Z,1.20
2022-08-03T12:28:56.111Z,1.30
2022-08-03T12:31:22.661Z,1.25
2022-08-03T12:34:05.059Z,1.15
2022-08-03T12:36:35.715Z,1.58
2022-08-03T12:39:05.892Z,1.40
2022-08-03T12:41:38.352Z,1.45
2022-08-03T12:44:06.242Z,1.20
2022-08-03T12:46:38.141Z,1.15
2022-08-03T12:49:11.351Z,1.60
2022-08-03T12:52:03.940Z,1.30
2022-08-03T12:54:35.855Z,1.15
2022-08-03T12:57:08.305Z,1.20
2022-08-03T12:59:41.178Z,1.20
2022-08-03T13:02:20.200Z,1.10
2022-08-03T13:04:51.874Z,1.20
2022-08-03T13:07:19.528Z,1.20
2022-08-03T13:09:55.850Z,1.30
2022-08-03T13:12:28.351Z,1.10
2022-08-03T13:14:58.710Z,1.20
2022-08-03T13:17:26.525Z,1.45
2022-08-03T13:19:53.913Z,1.00
2022-08-03T13:22:22.318Z,1.00
2022-08-03T13:24:50.825Z,1.23
2022-08-03T13:28:01.165Z,1.10
2022-08-03T13:30:04.751Z,0.95
2022-08-03T13:32:31.622Z,1.08
2022-08-03T13:34:58.141Z,1.50
2022-08-03T13:37:25.531Z,1.00
2022-08-03T13:39:58.745Z,1.00
2022-08-03T13:42:34.802Z,1.00
2022-08-03T13:45:02.345Z,0.95
2022-08-03T13:47:28.995Z,1.00
2022-08-03T13:50:01.612Z,1.00
2022-08-03T13:52:30.469Z,1.00
2022-08-03T13:54:56.984Z,1.40
2022-08-03T13:58:03.181Z,1.17
2022-08-03T14:00:10.656Z,1.00
2022-08-03T14:02:38.356Z,1.00
2022-08-03T14:05:05.313Z,1.20
2022-08-03T14:07:31.811Z,0.90
2022-08-03T14:09:58.307Z,1.40
2022-08-03T14:12:24.851Z,0.93
2022-08-03T14:14:51.344Z,1.10
2022-08-03T14:17:18.381Z,1.10
2022-08-03T14:19:53.036Z,1.15
2022-08-03T14:22:20.245Z,1.13
2022-08-03T14:24:46.740Z,1.00
2022-08-03T14:27:13.233Z,1.05
2022-08-03T14:29:39.696Z,1.02
2022-08-03T14:32:09.585Z,1.00
2022-08-03T14:34:38.828Z,1.30
2022-08-03T14:37:05.823Z,0.90
2022-08-03T14:42:20.282Z,1.10
2022-08-03T14:44:47.205Z,1.05
2022-08-03T14:47:13.753Z,1.20
2022-08-03T14:50:36.927Z,1.20
2022-08-03T14:52:26.920Z,1.10
2022-08-03T14:54:53.486Z,1.20
2022-08-03T14:57:20.106Z,1.20
2022-08-03T14:59:55.936Z,1.08
2022-08-03T15:02:24.634Z,1.17
2022-08-03T15:04:51.713Z,1.10
2022-08-03T15:07:18.624Z,1.10
2022-08-03T15:09:45.311Z,1.60
2022-08-03T15:12:11.850Z,1.30
2022-08-03T15:14:39.023Z,1.30
2022-08-03T15:17:05.885Z,1.33
2022-08-03T15:20:01.596Z,1.38
2022-08-03T15:22:20.475Z,1.40
2022-08-03T15:24:48.433Z,1.33
2022-08-03T15:27:14.968Z,1.30
2022-08-03T15:30:06.832Z,1.10
2022-08-03T15:32:28.023Z,1.33
2022-08-03T15:34:55.318Z,1.30
2022-08-03T15:37:22.105Z,1.30
2022-08-03T15:39:58.941Z,1.60
2022-08-03T15:42:26.988Z,1.25
2022-08-03T15:44:54.001Z,1.52
2022-08-03T15:47:21.657Z,1.17
2022-08-03T15:49:48.374Z,1.30
2022-08-03T15:52:14.931Z,1.20
2022-08-03T15:54:41.523Z,1.15
2022-08-03T15:57:08.082Z,1.40
2022-08-03T15:59:34.674Z,1.58
2022-08-03T16:02:01.310Z,1.20
2022-08-03T16:04:27.881Z,1.20
2022-08-03T16:06:54.497Z,1.27
2022-08-03T16:09:24.069Z,1.25
2022-08-03T16:12:15.540Z,1.30
2022-08-03T16:14:52.427Z,1.50
2022-08-03T16:17:20.362Z,1.50
2022-08-03T16:19:47.065Z,1.25
2022-08-03T16:22:14.355Z,1.35
2022-08-03T16:24:41.321Z,1.42
2022-08-03T16:27:17.379Z,1.15
2022-08-03T16:29:54.721Z,1.25
2022-08-03T16:32:21.323Z,1.30
2022-08-03T16:34:48.204Z,1.33
2022-08-03T16:37:37.522Z,1.40
2022-08-03T16:40:02.914Z,1.42
2022-08-03T16:42:29.624Z,1.45
2022-08-03T16:44:56.160Z,1.30
2022-08-03T16:47:23.075Z,1.52
2022-08-03T16:49:55.468Z,1.55
2022-08-03T16:52:23.487Z,1.48
2022-08-03T16:54:52.937Z,1.80
2022-08-03T16:57:56.012Z,1.45
2022-08-03T17:00:09.516Z,1.40
2022-08-03T17:02:36.248Z,1.42
2022-08-03T17:05:03.214Z,1.30
2022-08-03T17:07:30.527Z,1.30
2022-08-03T17:09:57.593Z,1.40
2022-08-03T17:12:26.705Z,1.20
2022-08-03T17:14:54.242Z,1.50
2022-08-03T17:17:47.576Z,1.20
2022-08-03T17:20:29.629Z,1.17
2022-08-03T17:23:05.965Z,1.17
2022-08-03T17:26:01.484Z,1.17
2022-08-03T17:28:48.438Z,1.40
2022-08-03T17:31:23.040Z,1.30
2022-08-03T17:34:00.392Z,1.40
2022-08-03T17:36:47.567Z,1.50
2022-08-03T17:39:16.681Z,1.20
2022-08-03T17:41:48.990Z,1.50
2022-08-03T17:44:33.202Z,1.73
2022-08-03T17:47:05.103Z,1.25
2022-08-03T17:49:33.319Z,1.50
2022-08-03T17:52:28.546Z,1.40
2022-08-03T17:55:54.958Z,1.48
2022-08-03T17:58:03.355Z,1.30
2022-08-03T18:00:52.120Z,1.45
2022-08-03T18:03:27.850Z,1.17
2022-08-03T18:06:10.367Z,0.95
2022-08-03T18:08:50.294Z,1.30
2022-08-03T18:11:21.661Z,1.45
2022-08-03T18:14:37.567Z,1.38
2022-08-03T18:17:10.737Z,1.20
2022-08-03T18:20:03.452Z,1.45
2022-08-03T18:22:28.018Z,1.30
2022-08-03T18:25:00.149Z,1.45
2022-08-03T18:27:42.573Z,1.50
2022-08-03T18:30:12.867Z,1.30
2022-08-03T18:32:39.849Z,1.10
2022-08-03T18:35:13.643Z,1.50
2022-08-03T18:37:51.673Z,1.40
2022-08-03T18:40:20.854Z,1.42
2022-08-03T18:42:52.762Z,1.30
2022-08-03T18:45:55.875Z,1.30
2022-08-03T18:48:21.434Z,1.33
2022-08-03T18:50:57.816Z,1.08
2022-08-03T18:54:02.531Z,1.40
2022-08-03T18:56:42.537Z,1.25
2022-08-03T18:59:29.985Z,1.33
2022-08-03T19:02:09.199Z,1.30
2022-08-03T19:04:47.532Z,1.40
2022-08-03T19:07:17.992Z,1.83
2022-08-03T19:10:03.764Z,1.50
2022-08-03T19:12:52.922Z,1.58
2022-08-03T19:15:36.516Z,1.30
2022-08-03T19:18:11.198Z,1.60
2022-08-03T19:20:37.918Z,1.33
2022-08-03T19:23:04.444Z,1.40
2022-08-03T19:25:38.236Z,1.30
2022-08-03T19:28:05.806Z,1.42
2022-08-03T19:30:40.032Z,1.40
2022-08-03T19:33:13.662Z,1.60
2022-08-03T19:35:54.956Z,1.52
2022-08-03T19:38:28.442Z,1.50
2022-08-03T19:41:02.077Z,1.50
2022-08-03T19:43:52.809Z,1.50
2022-08-03T19:46:30.657Z,1.27
2022-08-03T19:49:14.829Z,1.30
2022-08-03T19:52:01.771Z,1.70
2022-08-03T19:54:45.761Z,1.50
2022-08-03T19:57:23.592Z,1.63
2022-08-03T19:59:52.447Z,1.35
2022-08-03T20:02:26.497Z,1.50
2022-08-03T20:04:55.587Z,1.52
2022-08-03T20:07:23.665Z,1.63
2022-08-03T20:09:56.064Z,1.58
2022-08-03T20:12:28.289Z,1.60
2022-08-03T20:14:59.371Z,1.60
2022-08-03T20:17:55.552Z,1.70
2022-08-03T20:20:13.563Z,1.50
2022-08-03T20:22:45.646Z,1.52
2022-08-03T20:25:20.676Z,1.60
2022-08-03T20:28:08.000Z,1.65
2022-08-03T20:30:39.528Z,1.27
2022-08-03T20:33:09.202Z,1.67
2022-08-03T20:35:35.934Z,1.90
2022-08-03T20:38:03.556Z,2.13
2022-08-03T20:40:30.076Z,2.03
2022-08-03T20:42:56.589Z,1.98
2022-08-03T20:45:59.990Z,2.15
2022-08-03T20:48:10.005Z,1.58
2022-08-03T20:50:38.610Z,2.28
2022-08-03T20:53:07.147Z,1.77
2022-08-03T20:55:47.473Z,1.63
2022-08-03T20:58:23.847Z,1.90
2022-08-03T21:00:51.468Z,1.77
2022-08-03T21:03:18.777Z,1.70
2022-08-03T21:05:51.444Z,2.05
2022-08-03T21:08:21.471Z,1.90
2022-08-03T21:10:50.006Z,1.90
2022-08-03T21:13:24.675Z,2.00
2022-08-03T21:16:11.264Z,1.48
2022-08-03T21:18:50.491Z,1.58
2022-08-03T21:21:19.315Z,1.88
2022-08-03T21:23:49.925Z,2.05
2022-08-03T21:26:22.150Z,1.38
2022-08-03T21:28:50.145Z,1.75
2022-08-03T21:31:24.463Z,1.70
2022-08-03T21:34:02.627Z,1.98
2022-08-03T21:36:34.825Z,1.55
2022-08-03T21:39:03.009Z,2.30
2022-08-03T21:41:31.536Z,1.90
2022-08-03T21:43:59.449Z,1.70
2022-08-03T21:46:28.050Z,1.95
2022-08-03T21:50:05.026Z,2.00
2022-08-03T21:51:49.360Z,2.25
2022-08-03T21:54:18.630Z,2.05
2022-08-03T21:56:47.761Z,2.42
2022-08-03T21:59:19.861Z,1.80
2022-08-03T22:01:55.364Z,1.85
2022-08-03T22:04:42.646Z,1.80
2022-08-03T22:07:12.173Z,1.83
2022-08-03T22:09:38.706Z,1.60
2022-08-03T22:12:05.676Z,1.70
2022-08-03T22:14:33.125Z,1.80
2022-08-03T22:17:00.698Z,1.85
2022-08-03T22:19:30.013Z,1.90
2022-08-03T22:21:57.032Z,1.73
2022-08-03T22:24:28.165Z,1.50
2022-08-03T22:27:14.373Z,2.00
2022-08-03T22:29:43.093Z,2.05
2022-08-03T22:32:09.746Z,2.00
2022-08-03T22:34:37.253Z,1.58
2022-08-03T22:37:04.891Z,1.90
2022-08-03T22:39:32.139Z,2.03
2022-08-03T22:41:59.413Z,1.88
2022-08-03T22:44:27.153Z,1.95
2022-08-03T22:46:54.235Z,1.85
2022-08-03T22:49:22.112Z,1.70
2022-08-03T22:51:51.485Z,1.85
2022-08-03T22:54:18.063Z,1.85
2022-08-03T22:56:46.332Z,1.67
2022-08-03T22:59:39.990Z,1.83
2022-08-03T23:02:20.183Z,1.73
2022-08-03T23:04:54.876Z,1.85
2022-08-03T23:07:28.635Z,2.47
2022-08-03T23:09:56.706Z,1.92
2022-08-03T23:12:23.582Z,1.75
2022-08-03T23:14:55.514Z,2.00
2022-08-03T23:17:23.969Z,1.80
2022-08-03T23:19:52.689Z,1.77
2022-08-03T23:22:30.434Z,1.67
2022-08-03T23:24:59.012Z,1.63
2022-08-03T23:27:27.845Z,1.83
2022-08-03T23:29:58.288Z,2.38
2022-08-03T23:32:30.645Z,2.60
2022-08-03T23:35:21.258Z,1.98
2022-08-03T23:38:10.737Z,2.30
2022-08-03T23:40:37.435Z,1.80
2022-08-03T23:43:05.430Z,1.83
2022-08-03T23:45:35.546Z,1.75
2022-08-03T23:48:02.025Z,1.85
2022-08-03T23:50:40.257Z,1.85
2022-08-03T23:53:28.737Z,1.80
2022-08-03T23:56:01.088Z,1.67
2022-08-03T23:58:35.693Z,2.00
